Time;durP1;ratioP1;P1;durP2;ratioP2;P2;SDS_P1;SDS_P2;PMS_P1;PMS_P2;Temp;Humidity;BMP_temperature;BMP_pressure;BME280_temperature;BME280_humidity;BME280_pressure;Samples;Min_cycle;Max_cycle;Signal;HPM_P1;HPM_P2
2022/10/03 00:01:46;;;;;;;1999.90;999.90;;;8.50;99.90;;;;;;5112946;27;20043;-64
2022/10/03 00:04:49;;;;;;;1999.90;999.90;;;8.40;99.90;;;;;;5091037;27;20050;-64
2022/10/03 00:07:34;;;;;;;;;;;8.40;99.90;;;;;;5094672;28;20048;-64
2022/10/03 00:10:31;;;;;;;1999.90;999.90;;;8.40;99.90;;;;;;5092239;28;19974;-64
2022/10/03 00:13:09;;;;;;;1999.90;999.90;;;8.40;99.90;;;;;;5097585;27;20101;-64
2022/10/03 00:15:48;;;;;;;1999.90;999.90;;;8.40;99.90;;;;;;5106873;27;20050;-64
2022/10/03 00:18:33;;;;;;;1999.90;999.90;;;8.40;99.90;;;;;;5095140;28;20036;-64
2022/10/03 00:21:08;;;;;;;1999.90;999.90;;;8.40;99.90;;;;;;5100407;27;20181;-64
2022/10/03 00:23:46;;;;;;;1999.90;999.90;;;8.40;99.90;;;;;;5107678;27;20120;-64
2022/10/03 00:26:27;;;;;;;1999.90;999.90;;;8.40;99.90;;;;;;5090593;28;20050;-64
2022/10/03 00:29:07;;;;;;;1999.90;999.90;;;8.40;99.90;;;;;;5101568;27;20054;-64
2022/10/03 00:31:50;;;;;;;1999.90;999.90;;;8.40;99.90;;;;;;5100114;28;20042;-64
2022/10/03 00:34:44;;;;;;;1999.90;999.90;;;8.50;99.90;;;;;;5112429;27;20046;-64
2022/10/03 00:37:44;;;;;;;1999.90;999.90;;;8.60;99.90;;;;;;5085487;28;20048;-64
2022/10/03 00:40:59;;;;;;;1999.90;999.90;;;8.60;99.90;;;;;;5085905;27;20139;-64
2022/10/03 00:43:49;;;;;;;1999.90;999.90;;;8.70;99.90;;;;;;5107958;27;20036;-64
2022/10/03 00:46:53;;;;;;;1999.90;999.90;;;8.80;99.90;;;;;;5111315;27;20077;-64
2022/10/03 00:49:37;;;;;;;1999.90;999.90;;;8.90;99.90;;;;;;5103147;28;20047;-65
2022/10/03 00:52:29;;;;;;;1999.90;999.90;;;9.00;99.90;;;;;;5091293;28;20070;-65
2022/10/03 00:55:22;;;;;;;1999.90;999.90;;;9.10;99.90;;;;;;5089131;28;20081;-64
2022/10/03 00:58:09;;;;;;;1999.90;999.90;;;9.10;99.90;;;;;;5109134;28;20047;-64
2022/10/03 01:00:35;;;;;;;1999.90;999.90;;;9.10;99.90;;;;;;5105240;28;20043;-64
2022/10/03 01:03:20;;;;;;;1999.90;999.90;;;9.10;99.90;;;;;;5091527;28;20039;-65
2022/10/03 01:05:55;;;;;;;1999.90;999.90;;;9.10;99.90;;;;;;5079235;28;20039;-64
2022/10/03 01:08:58;;;;;;;1999.90;999.90;;;9.10;99.90;;;;;;5083100;28;20119;-64
2022/10/03 01:11:36;;;;;;;1999.90;999.90;;;9.10;99.90;;;;;;5093994;28;20441;-64
2022/10/03 01:14:32;;;;;;;1999.90;999.90;;;9.10;99.90;;;;;;5090582;28;20077;-64
2022/10/03 01:17:08;;;;;;;1999.90;999.90;;;9.00;99.90;;;;;;5095792;28;20044;-64
2022/10/03 01:20:05;;;;;;;1999.90;999.90;;;9.00;99.90;;;;;;5085306;28;20067;-64
2022/10/03 01:22:51;;;;;;;1999.90;999.90;;;9.10;99.90;;;;;;5090023;28;20618;-64
2022/10/03 01:25:40;;;;;;;1999.90;999.90;;;9.00;99.90;;;;;;5107763;27;20501;-64
2022/10/03 01:31:12;;;;;;;1999.90;999.90;;;9.10;99.90;;;;;;5111858;27;20069;-64
2022/10/03 01:33:53;;;;;;;1999.90;999.90;;;9.20;99.90;;;;;;5100842;27;20039;-64
2022/10/03 01:36:31;;;;;;;1999.90;999.90;;;9.20;99.90;;;;;;5092016;28;20046;-64
2022/10/03 01:39:17;;;;;;;1999.90;999.90;;;9.20;99.90;;;;;;5105286;28;20192;-64
2022/10/03 01:41:58;;;;;;;1999.90;999.90;;;9.20;99.90;;;;;;5107100;27;20047;-64
2022/10/03 01:44:30;;;;;;;1999.90;999.90;;;9.20;99.90;;;;;;5107102;28;20055;-64
2022/10/03 01:47:22;;;;;;;1999.90;999.90;;;9.30;99.90;;;;;;5105234;27;20054;-64
2022/10/03 01:50:18;;;;;;;1999.90;999.90;;;9.20;99.90;;;;;;5110034;27;20036;-64
2022/10/03 01:53:10;;;;;;;1999.90;999.90;;;9.20;99.90;;;;;;5076319;28;20043;-64
2022/10/03 01:55:36;;;;;;;1999.90;999.90;;;9.20;99.90;;;;;;5092923;28;20081;-64
2022/10/03 01:58:30;;;;;;;1999.90;999.90;;;9.20;99.90;;;;;;5093648;28;20079;-64
2022/10/03 02:01:08;;;;;;;1999.90;999.90;;;9.20;99.90;;;;;;5089779;28;20101;-64
2022/10/03 02:03:48;;;;;;;1999.90;999.90;;;9.20;99.90;;;;;;5089810;27;20063;-64
2022/10/03 02:06:52;;;;;;;1999.90;999.90;;;9.20;99.90;;;;;;5087507;28;20393;-64
2022/10/03 02:09:50;;;;;;;1999.90;999.90;;;9.20;99.90;;;;;;5088719;28;20051;-64
2022/10/03 02:12:39;;;;;;;1999.90;999.90;;;9.20;99.90;;;;;;5106425;28;20131;-64
2022/10/03 02:15:10;;;;;;;1999.90;999.90;;;9.30;99.90;;;;;;5085613;28;20039;-64
2022/10/03 02:17:47;;;;;;;1999.90;999.90;;;9.30;99.90;;;;;;5114200;27;20073;-64
2022/10/03 02:20:29;;;;;;;1999.90;999.90;;;9.30;99.90;;;;;;5109853;27;20039;-64
2022/10/03 02:22:57;;;;;;;1999.90;999.90;;;9.30;99.90;;;;;;5090248;28;20050;-64
2022/10/03 02:25:49;;;;;;;1999.90;999.90;;;9.30;99.90;;;;;;5103200;27;20115;-65
2022/10/03 02:28:34;;;;;;;1999.90;999.90;;;9.30;99.90;;;;;;5102753;27;20517;-64
2022/10/03 02:31:18;;;;;;;1999.90;999.90;;;9.30;99.90;;;;;;5106313;27;20036;-64
2022/10/03 02:34:02;;;;;;;1999.90;999.90;;;9.40;99.90;;;;;;5107378;28;20036;-64
2022/10/03 02:36:33;;;;;;;1999.90;999.90;;;9.40;99.90;;;;;;5101943;27;20035;-64
2022/10/03 02:39:30;;;;;;;1999.90;999.90;;;9.30;99.90;;;;;;5108867;28;20126;-64
2022/10/03 02:42:17;;;;;;;1999.90;999.90;;;9.30;99.90;;;;;;5087901;28;20055;-64
2022/10/03 02:44:58;;;;;;;1999.90;999.90;;;9.30;99.90;;;;;;5088582;28;20090;-64
2022/10/03 02:47:41;;;;;;;1999.90;999.90;;;9.30;99.90;;;;;;5107447;27;20047;-64
2022/10/03 02:50:44;;;;;;;1999.90;999.90;;;9.40;99.90;;;;;;5083038;28;20438;-64
2022/10/03 02:53:37;;;;;;;1999.90;999.90;;;9.40;99.90;;;;;;5104286;28;20074;-64
2022/10/03 02:56:40;;;;;;;1999.90;999.90;;;9.40;99.90;;;;;;5106399;28;20119;-64
2022/10/03 02:59:36;;;;;;;1999.90;999.90;;;9.40;99.90;;;;;;5087873;28;20393;-65
2022/10/03 03:02:29;;;;;;;1999.90;999.90;;;9.50;99.90;;;;;;5107195;28;20121;-64
2022/10/03 03:05:04;;;;;;;1999.90;999.90;;;9.50;99.90;;;;;;5096731;28;20404;-64
2022/10/03 03:07:58;;;;;;;1999.90;999.90;;;9.60;99.90;;;;;;5094464;28;20043;-64
2022/10/03 03:10:51;;;;;;;1999.90;999.90;;;9.70;99.90;;;;;;5106639;28;20047;-64
2022/10/03 03:13:55;;;;;;;;;;;9.80;99.90;;;;;;5110746;28;20380;-64
2022/10/03 03:16:23;;;;;;;1999.90;999.90;;;9.90;99.90;;;;;;5025959;28;19999;-64
2022/10/03 03:18:58;;;;;;;1999.90;999.90;;;10.00;99.90;;;;;;5022415;28;20056;-64
2022/10/03 03:21:38;;;;;;;1999.90;999.90;;;10.00;99.90;;;;;;5010068;28;20061;-64
2022/10/03 03:24:28;;;;;;;1999.90;999.90;;;10.00;99.90;;;;;;5024312;28;20083;-64
2022/10/03 03:27:00;;;;;;;1999.90;999.90;;;10.10;99.90;;;;;;5022986;28;20111;-64
2022/10/03 03:29:31;;;;;;;1999.90;999.90;;;10.00;99.90;;;;;;5025634;28;20053;-64
2022/10/03 03:32:00;;;;;;;1999.90;999.90;;;10.00;99.90;;;;;;5012285;28;20605;-64
2022/10/03 03:34:41;;;;;;;1999.90;999.90;;;10.00;99.90;;;;;;5021646;28;20060;-64
2022/10/03 03:37:21;;;;;;;1999.90;999.90;;;9.90;99.90;;;;;;5023522;28;20084;-64
2022/10/03 03:40:05;;;;;;;1999.90;999.90;;;9.90;99.90;;;;;;5021501;28;20462;-64
2022/10/03 03:42:41;;;;;;;1999.90;999.90;;;9.80;99.90;;;;;;5007650;28;20048;-64
2022/10/03 03:45:12;;;;;;;1999.90;999.90;;;9.80;99.90;;;;;;5007051;28;20101;-64
2022/10/03 03:47:54;;;;;;;1999.90;999.90;;;9.70;99.90;;;;;;5071172;28;20051;-64
2022/10/03 03:51:10;;;;;;;1999.90;999.90;;;9.70;99.90;;;;;;5085978;28;20040;-64
2022/10/03 03:54:07;;;;;;;1999.90;999.90;;;9.70;99.90;;;;;;5046473;28;20051;-64
2022/10/03 03:57:03;;;;;;;1999.90;999.90;;;9.60;99.90;;;;;;5089738;28;20047;-64
2022/10/03 03:59:39;;;;;;;1999.90;999.90;;;9.50;99.90;;;;;;5081233;28;20040;-64
2022/10/03 04:02:30;;;;;;;1999.90;999.90;;;9.50;99.90;;;;;;5119566;27;20043;-64
2022/10/03 04:05:20;;;;;;;1999.90;999.90;;;9.40;99.90;;;;;;5105859;27;20036;-64
2022/10/03 04:08:24;;;;;;;1999.90;999.90;;;9.30;99.90;;;;;;5121928;27;20040;-64
2022/10/03 04:10:56;;;;;;;;;;;9.20;99.90;;;;;;5110993;27;20225;-64
2022/10/03 04:13:46;;;;;;;1999.90;999.90;;;9.20;99.90;;;;;;5119789;27;19916;-64
2022/10/03 04:18:56;;;;;;;1999.90;999.90;;;9.20;99.90;;;;;;5123389;27;20050;-64
2022/10/03 04:19:16;;;;;;;1999.90;999.90;;;9.10;99.90;;;;;;5107604;27;20090;-64
2022/10/03 04:21:54;;;;;;;1999.90;999.90;;;9.10;99.90;;;;;;5109515;28;20089;-64
2022/10/03 04:24:54;;;;;;;1999.90;999.90;;;9.00;99.90;;;;;;5091570;27;20070;-64
2022/10/03 04:27:28;;;;;;;1999.90;999.90;;;9.00;99.90;;;;;;5106853;27;20122;-64
2022/10/03 04:30:08;;;;;;;1999.90;999.90;;;8.90;99.90;;;;;;5116185;27;20384;-64
2022/10/03 04:33:11;;;;;;;1999.90;999.90;;;8.90;99.90;;;;;;5104219;27;20038;-64
2022/10/03 04:35:54;;;;;;;1999.90;999.90;;;8.90;99.90;;;;;;5104417;27;20078;-64
2022/10/03 04:38:38;;;;;;;1999.90;999.90;;;8.90;99.90;;;;;;5107505;27;20373;-64
2022/10/03 04:41:22;;;;;;;1999.90;999.90;;;8.90;99.90;;;;;;5117341;27;20040;-64
2022/10/03 04:44:10;;;;;;;1999.90;999.90;;;8.90;99.90;;;;;;5095293;28;20048;-64
2022/10/03 04:46:51;;;;;;;1999.90;999.90;;;8.80;99.90;;;;;;5105377;27;20409;-64
2022/10/03 04:49:29;;;;;;;1999.90;999.90;;;8.80;99.90;;;;;;5109226;27;20104;-64
2022/10/03 04:51:59;;;;;;;1999.90;999.90;;;8.80;99.90;;;;;;5112288;27;20042;-64
2022/10/03 04:54:46;;;;;;;1999.90;999.90;;;8.70;99.90;;;;;;5120955;27;20058;-64
2022/10/03 04:57:41;;;;;;;1999.90;999.90;;;8.70;99.90;;;;;;5109081;27;20055;-64
2022/10/03 05:00:23;;;;;;;1999.90;999.90;;;8.60;99.90;;;;;;5093613;28;20032;-64
2022/10/03 05:03:20;;;;;;;1999.90;999.90;;;8.60;99.90;;;;;;5109913;27;20043;-64
2022/10/03 05:05:55;;;;;;;1999.90;999.90;;;8.50;99.90;;;;;;5102075;27;20045;-64
2022/10/03 05:08:52;;;;;;;1999.90;999.90;;;8.50;99.90;;;;;;5105939;28;20054;-64
2022/10/03 05:11:38;;;;;;;1999.90;999.90;;;8.40;99.90;;;;;;5109268;27;20126;-64
2022/10/03 05:14:22;;;;;;;1999.90;999.90;;;8.40;99.90;;;;;;5076294;28;20503;-64
2022/10/03 05:17:20;;;;;;;1999.90;999.90;;;8.30;99.90;;;;;;5111495;27;20120;-64
2022/10/03 05:20:02;;;;;;;1999.90;999.90;;;8.30;99.90;;;;;;5023456;28;20053;-64
2022/10/03 05:22:48;;;;;;;1999.90;999.90;;;8.30;99.90;;;;;;5020282;28;20061;-64
2022/10/03 05:25:26;;;;;;;1999.90;999.90;;;8.30;99.90;;;;;;5019655;28;20059;-64
2022/10/03 05:28:11;;;;;;;1999.90;999.90;;;8.30;99.90;;;;;;5007202;28;20045;-64
2022/10/03 05:30:48;;;;;;;1999.90;999.90;;;8.20;99.90;;;;;;5010915;28;20092;-64
2022/10/03 05:33:31;;;;;;;1999.90;999.90;;;8.20;99.90;;;;;;5017120;28;20085;-64
2022/10/03 05:36:12;;;;;;;1999.90;999.90;;;8.10;99.90;;;;;;5023892;28;20049;-64
2022/10/03 05:38:56;;;;;;;1999.90;999.90;;;8.10;99.90;;;;;;5018565;28;20132;-64
2022/10/03 05:41:28;;;;;;;1999.90;999.90;;;8.00;99.90;;;;;;5003045;28;20049;-64
2022/10/03 05:43:59;;;;;;;1999.90;999.90;;;8.00;99.90;;;;;;5028971;28;20083;-64
2022/10/03 05:46:46;;;;;;;1999.90;999.90;;;8.00;99.90;;;;;;5010414;28;20056;-64
2022/10/03 05:49:30;;;;;;;1999.90;999.90;;;7.90;99.90;;;;;;5005677;28;20045;-64
2022/10/03 05:52:17;;;;;;;1999.90;999.90;;;7.90;99.90;;;;;;5007080;28;20154;-64
2022/10/03 05:55:20;;;;;;;1999.90;999.90;;;7.90;99.90;;;;;;5036953;28;20051;-65
2022/10/03 05:58:00;;;;;;;1999.90;999.90;;;7.80;99.90;;;;;;5086629;28;20058;-64
2022/10/03 06:00:44;;;;;;;1999.90;999.90;;;7.80;99.90;;;;;;5091123;27;20043;-64
2022/10/03 06:03:48;;;;;;;1999.90;999.90;;;7.80;99.90;;;;;;5109221;27;20032;-64
2022/10/03 06:06:32;;;;;;;1999.90;999.90;;;7.80;99.90;;;;;;5090585;27;20043;-64
2022/10/03 06:09:22;;;;;;;1999.90;999.90;;;7.90;99.90;;;;;;5087402;27;20485;-64
2022/10/03 06:12:24;;;;;;;1999.90;999.90;;;7.90;99.90;;;;;;5082837;28;20047;-64
2022/10/03 06:15:28;;;;;;;1999.90;999.90;;;8.00;99.90;;;;;;5061540;27;20113;-64
2022/10/03 06:18:20;;;;;;;1999.90;999.90;;;7.90;99.90;;;;;;5083885;27;20043;-64
2022/10/03 06:21:04;;;;;;;1999.90;999.90;;;8.00;99.90;;;;;;5103173;28;20036;-64
2022/10/03 06:23:48;;;;;;;1999.90;999.90;;;8.00;99.90;;;;;;5108341;28;20053;-64
2022/10/03 06:26:50;;;;;;;1999.90;999.90;;;8.10;99.90;;;;;;5104894;27;20120;-64
2022/10/03 06:29:46;;;;;;;1999.90;999.90;;;8.20;99.90;;;;;;5104375;28;20060;-64
2022/10/03 06:32:29;;;;;;;1999.90;999.90;;;8.20;99.90;;;;;;5106661;28;20040;-64
2022/10/03 06:35:06;;;;;;;1999.90;999.90;;;8.40;99.90;;;;;;5098971;27;20135;-64
2022/10/03 06:38:03;;;;;;;1999.90;999.90;;;8.40;99.90;;;;;;5108168;28;20048;-64
2022/10/03 06:41:03;;;;;;;1999.90;999.90;;;8.50;99.90;;;;;;5098336;28;20031;-64
2022/10/03 06:43:40;;;;;;;1999.90;999.90;;;8.60;99.90;;;;;;5101984;28;20043;-64
2022/10/03 06:46:44;;;;;;;1999.90;999.90;;;8.70;99.90;;;;;;5103097;28;20048;-64
2022/10/03 06:49:38;;;;;;;1999.90;999.90;;;8.80;99.90;;;;;;5093673;28;20461;-64
2022/10/03 06:52:24;;;;;;;1999.90;999.90;;;9.00;99.90;;;;;;5106894;28;20081;-64
2022/10/03 06:55:19;;;;;;;1999.90;999.90;;;9.10;99.90;;;;;;5107585;28;20054;-64
2022/10/03 06:58:03;;;;;;;1999.90;999.90;;;9.20;99.90;;;;;;5106544;28;20062;-64
2022/10/03 07:00:41;;;;;;;1999.90;999.90;;;9.40;99.90;;;;;;5089658;28;20151;-64
2022/10/03 07:03:23;;;;;;;1999.90;999.90;;;9.50;99.90;;;;;;5097350;28;20048;-64
2022/10/03 07:05:58;;;;;;;1999.90;999.90;;;9.60;99.90;;;;;;5106383;28;20109;-64
2022/10/03 07:08:34;;;;;;;1999.90;999.90;;;9.80;99.90;;;;;;5089816;28;20046;-64
2022/10/03 07:11:14;;;;;;;1999.90;999.90;;;9.90;99.90;;;;;;5107515;28;20047;-64
2022/10/03 07:13:49;;;;;;;1999.90;999.90;;;10.00;99.90;;;;;;5086362;28;20047;-64
2022/10/03 07:16:45;;;;;;;1999.90;999.90;;;10.30;99.90;;;;;;5081911;28;20135;-64
2022/10/03 07:19:23;;;;;;;1999.90;999.90;;;10.40;99.90;;;;;;5113879;28;20048;-64
2022/10/03 07:22:17;;;;;;;1999.90;999.90;;;10.60;99.90;;;;;;5119255;28;20027;-64
2022/10/03 07:25:14;;;;;;;1999.90;999.90;;;10.70;99.90;;;;;;5101932;28;20043;-64
2022/10/03 07:28:03;;;;;;;1999.90;999.90;;;10.80;99.90;;;;;;5110760;28;20044;-64
2022/10/03 07:30:47;;;;;;;1999.90;999.90;;;10.90;99.90;;;;;;5121201;28;20135;-65
2022/10/03 07:33:31;;;;;;;;;;;11.00;99.90;;;;;;5083328;28;20103;-64
2022/10/03 07:39:26;;;;;;;1999.90;999.90;;;11.30;99.90;;;;;;5110302;27;20052;-64
2022/10/03 07:42:16;;;;;;;1999.90;999.90;;;11.40;99.90;;;;;;5106004;28;20039;-65
2022/10/03 07:44:58;;;;;;;1999.90;999.90;;;11.50;99.90;;;;;;5089125;28;20135;-64
2022/10/03 07:47:58;;;;;;;1999.90;999.90;;;11.60;99.90;;;;;;5107163;27;20138;-64
2022/10/03 07:50:49;;;;;;;1999.90;999.90;;;11.80;99.90;;;;;;5092835;28;20338;-65
2022/10/03 07:53:21;;;;;;;1999.90;999.90;;;12.00;99.90;;;;;;5116624;27;20502;-65
2022/10/03 07:56:08;;;;;;;1999.90;999.90;;;12.10;99.90;;;;;;5108521;28;20042;-64
2022/10/03 07:58:55;;;;;;;1999.90;999.90;;;12.20;99.90;;;;;;5092222;27;20130;-65
2022/10/03 08:01:40;;;;;;;1999.90;999.90;;;12.40;99.90;;;;;;5100213;28;20480;-65
2022/10/03 08:04:17;;;;;;;1999.90;999.90;;;12.50;99.90;;;;;;5104963;28;20043;-65
2022/10/03 08:06:50;;;;;;;1999.90;999.90;;;12.60;99.90;;;;;;5110113;28;20047;-65
2022/10/03 08:09:35;;;;;;;1999.90;999.90;;;12.80;99.90;;;;;;5084358;28;20112;-65
2022/10/03 08:12:44;;;;;;;1999.90;999.90;;;12.90;99.90;;;;;;5110785;27;20050;-65
2022/10/03 08:15:20;;;;;;;1999.90;999.90;;;13.20;99.90;;;;;;5110526;28;20458;-65
2022/10/03 08:18:06;;;;;;;1999.90;999.90;;;13.40;99.90;;;;;;5086466;28;20036;-65
2022/10/03 08:20:57;;;;;;;1999.90;999.90;;;13.70;99.90;;;;;;5095909;27;20069;-65
2022/10/03 08:23:49;;;;;;;1999.90;999.90;;;14.10;99.90;;;;;;5111043;27;20050;-65
2022/10/03 08:26:26;;;;;;;1999.90;999.90;;;14.40;99.90;;;;;;5106210;27;20040;-65
2022/10/03 08:29:30;;;;;;;1999.90;999.90;;;14.90;99.90;;;;;;5119801;27;20035;-65
2022/10/03 08:32:20;;;;;;;1999.90;999.90;;;15.30;99.90;;;;;;5081509;28;20049;-65
2022/10/03 08:35:15;;;;;;;1999.90;999.90;;;15.50;99.90;;;;;;5091671;27;20043;-65
2022/10/03 08:37:50;;;;;;;1999.90;999.90;;;16.30;99.90;;;;;;5098206;28;20040;-65
2022/10/03 08:40:43;;;;;;;1999.90;999.90;;;17.30;99.90;;;;;;5098499;27;20092;-66
2022/10/03 08:43:29;;;;;;;;;;;18.20;99.90;;;;;;5112328;27;20065;-65
2022/10/03 08:46:16;;;;;;;1999.90;999.90;;;18.70;99.90;;;;;;5107067;27;19928;-65
2022/10/03 08:48:44;;;;;;;1999.90;999.90;;;19.30;99.90;;;;;;5101693;28;20043;-66
2022/10/03 08:51:31;;;;;;;1999.90;999.90;;;19.70;99.90;;;;;;5108883;28;20496;-66
2022/10/03 08:54:32;;;;;;;1999.90;999.90;;;20.00;99.90;;;;;;5086708;28;20409;-66
2022/10/03 08:57:19;;;;;;;1999.90;999.90;;;19.90;99.90;;;;;;5087181;28;20408;-66
2022/10/03 09:00:17;;;;;;;1999.90;999.90;;;19.80;99.90;;;;;;5104804;28;20054;-65
2022/10/03 09:03:09;;;;;;;1999.90;999.90;;;20.10;99.90;;;;;;5097555;28;20489;-65
2022/10/03 09:06:11;;;;;;;1999.90;999.90;;;20.40;99.90;;;;;;5110246;28;20050;-66
2022/10/03 09:09:08;;;;;;;1999.90;999.90;;;20.30;99.90;;;;;;5108294;28;20412;-65
2022/10/03 09:11:40;;;;;;;1999.90;999.90;;;20.30;99.90;;;;;;5097121;28;20401;-65
2022/10/03 09:14:37;;;;;;;1999.90;999.90;;;20.40;99.90;;;;;;5117989;27;20057;-66
2022/10/03 09:17:28;;;;;;;1999.90;999.90;;;20.50;99.90;;;;;;5107325;27;20090;-66
2022/10/03 09:20:12;;;;;;;1999.90;999.90;;;20.70;99.90;;;;;;5104682;27;20031;-66
2022/10/03 09:22:59;;;;;;;1999.90;999.90;;;20.80;99.90;;;;;;5109157;27;20454;-66
2022/10/03 09:25:54;;;;;;;1999.90;999.90;;;20.70;99.90;;;;;;5097734;28;20392;-66
2022/10/03 09:29:16;;;;;;;1999.90;999.90;;;20.80;99.90;;;;;;5102978;27;20044;-66
2022/10/03 09:32:00;;;;;;;1999.90;999.90;;;20.90;99.90;;;;;;5009546;28;20045;-65
2022/10/03 09:34:46;;;;;;;1999.90;999.90;;;20.80;99.90;;;;;;5018769;28;20049;-66
2022/10/03 09:37:30;;;;;;;1999.90;999.90;;;20.60;99.90;;;;;;5096057;27;20052;-65
2022/10/03 09:40:32;;;;;;;1999.90;999.90;;;20.40;99.90;;;;;;5106768;27;20040;-66
2022/10/03 09:43:03;;;;;;;1999.90;999.90;;;20.20;99.90;;;;;;5095074;27;20040;-66
2022/10/03 09:46:10;;;;;;;1999.90;999.90;;;20.20;99.90;;;;;;5093492;27;20074;-66
2022/10/03 09:48:49;;;;;;;1999.90;999.90;;;19.80;99.90;;;;;;5078650;27;20043;-66
2022/10/03 09:51:51;;;;;;;1999.90;999.90;;;19.60;99.90;;;;;;5081743;28;20123;-66
2022/10/03 09:54:46;;;;;;;1999.90;999.90;;;19.80;99.90;;;;;;5095858;28;20047;-66
2022/10/03 09:57:46;;;;;;;1999.90;999.90;;;19.70;99.90;;;;;;5103717;28;20126;-66
2022/10/03 10:00:18;;;;;;;1999.90;999.90;;;19.40;99.90;;;;;;5089388;28;20775;-66
2022/10/03 10:02:44;;;;;;;1999.90;999.90;;;19.20;99.90;;;;;;5107852;27;20039;-66
2022/10/03 10:05:40;;;;;;;1999.90;999.90;;;19.10;99.90;;;;;;5116103;27;20782;-66
2022/10/03 10:08:24;;;;;;;1999.90;999.90;;;19.00;99.90;;;;;;5100011;27;20519;-66
2022/10/03 10:11:36;;;;;;;1999.90;999.90;;;19.00;99.90;;;;;;5108481;28;20039;-66
2022/10/03 10:14:25;;;;;;;1999.90;999.90;;;19.00;99.90;;;;;;5104156;27;20451;-65
2022/10/03 10:17:28;;;;;;;1999.90;999.90;;;18.90;99.90;;;;;;5109845;27;20576;-66
2022/10/03 10:20:31;;;;;;;1999.90;999.90;;;18.70;99.90;;;;;;5106949;27;20055;-65
2022/10/03 10:23:53;;;;;;;1999.90;999.90;;;18.70;99.90;;;;;;5115351;27;20039;-65
2022/10/03 10:26:49;;;;;;;1999.90;999.90;;;18.70;99.90;;;;;;5030318;28;20037;-66
2022/10/03 10:29:27;;;;;;;1999.90;999.90;;;18.60;99.90;;;;;;5027129;28;20443;-66
2022/10/03 10:32:42;;;;;;;1999.90;999.90;;;18.50;99.90;;;;;;5024712;28;20139;-65
2022/10/03 10:35:43;;;;;;;1999.90;999.90;;;18.50;99.90;;;;;;5007426;28;20160;-65
2022/10/03 10:38:27;;;;;;;1999.90;999.90;;;18.50;99.90;;;;;;5025089;28;20125;-66
2022/10/03 10:41:12;;;;;;;1999.90;999.90;;;18.60;99.90;;;;;;5011517;28;20418;-65
2022/10/03 10:43:48;;;;;;;1999.90;999.90;;;18.60;99.90;;;;;;5017762;28;20065;-66
2022/10/03 10:46:51;;;;;;;1999.90;999.90;;;18.70;99.90;;;;;;5020689;28;20523;-65
2022/10/03 10:49:37;;;;;;;1999.90;999.90;;;18.70;99.90;;;;;;5003360;28;20045;-65
2022/10/03 10:52:46;;;;;;;1999.90;999.90;;;18.80;99.90;;;;;;5010650;28;20056;-66
2022/10/03 10:55:59;;;;;;;1999.90;999.90;;;18.90;99.90;;;;;;5022658;28;20060;-65
2022/10/03 10:58:45;;;;;;;1999.90;999.90;;;18.90;99.90;;;;;;5025197;28;20053;-66
2022/10/03 11:01:32;;;;;;;1999.90;999.90;;;18.80;99.90;;;;;;5103455;28;20125;-65
2022/10/03 11:04:20;;;;;;;1999.90;999.90;;;18.80;99.90;;;;;;5099585;28;20039;-65
2022/10/03 11:07:05;;;;;;;1999.90;999.90;;;18.80;99.90;;;;;;5087422;28;20556;-66
2022/10/03 11:10:00;;;;;;;1999.90;999.90;;;18.90;99.90;;;;;;5095179;28;20047;-65
2022/10/03 11:13:03;;;;;;;1999.90;999.90;;;19.00;99.90;;;;;;5099680;27;20582;-66
2022/10/03 11:15:52;;;;;;;1999.90;999.90;;;19.10;99.90;;;;;;5106397;28;20048;-66
2022/10/03 11:18:58;;;;;;;1999.90;999.90;;;19.10;99.90;;;;;;5097433;28;20085;-66
2022/10/03 11:21:54;;;;;;;1999.90;999.90;;;19.10;99.90;;;;;;5107399;28;20122;-66
2022/10/03 11:25:14;;;;;;;1999.90;999.90;;;19.10;99.90;;;;;;5099521;28;20032;-66
2022/10/03 11:28:15;;;;;;;1999.90;999.90;;;19.20;99.90;;;;;;5089895;28;20051;-66
2022/10/03 11:30:43;;;;;;;1999.90;999.90;;;19.20;99.90;;;;;;5101640;28;20135;-65
2022/10/03 11:33:27;;;;;;;1999.90;999.90;;;19.20;99.90;;;;;;5110135;28;20543;-65
2022/10/03 11:36:16;;;;;;;1999.90;999.90;;;19.20;99.90;;;;;;5069505;28;20707;-65
2022/10/03 11:39:02;;;;;;;1999.90;999.90;;;19.20;99.90;;;;;;5106910;28;20043;-65
2022/10/03 11:41:50;;;;;;;1999.90;999.90;;;19.40;99.90;;;;;;5103872;28;20047;-65
2022/10/03 11:44:31;;;;;;;1999.90;999.90;;;19.50;99.90;;;;;;5103620;28;20047;-65
2022/10/03 11:47:24;;;;;;;1999.90;999.90;;;19.50;99.90;;;;;;5070306;28;20125;-65
2022/10/03 11:50:15;;;;;;;1999.90;999.90;;;19.30;99.90;;;;;;5100149;28;20039;-65
2022/10/03 11:53:06;;;;;;;1999.90;999.90;;;19.10;99.90;;;;;;5105937;28;20728;-65
2022/10/03 11:55:37;;;;;;;1999.90;999.90;;;19.00;99.90;;;;;;5105987;28;20482;-65
2022/10/03 11:58:23;;;;;;;1999.90;999.90;;;18.90;99.90;;;;;;5097177;28;20079;-65
2022/10/03 12:01:06;;;;;;;1999.90;999.90;;;18.70;99.90;;;;;;5099677;28;20083;-65
2022/10/03 12:03:38;;;;;;;1999.90;999.90;;;18.40;99.90;;;;;;5108534;28;20500;-65
2022/10/03 12:09:06;;;;;;;1999.90;999.90;;;18.30;99.90;;;;;;5110148;28;20051;-65
2022/10/03 12:11:43;;;;;;;1999.90;999.90;;;18.30;99.90;;;;;;5106530;28;20520;-65
2022/10/03 12:14:12;;;;;;;1999.90;999.90;;;18.30;99.90;;;;;;5100680;28;20047;-64
2022/10/03 12:17:14;;;;;;;1999.90;999.90;;;18.30;99.90;;;;;;5094658;28;20167;-65
2022/10/03 12:19:49;;;;;;;1999.90;999.90;;;18.40;99.90;;;;;;5097854;28;20048;-65
2022/10/03 12:22:23;;;;;;;1999.90;999.90;;;18.40;99.90;;;;;;5096884;28;20039;-65
2022/10/03 12:24:54;;;;;;;1999.90;999.90;;;18.30;99.90;;;;;;5103177;27;20066;-65
2022/10/03 12:28:00;;;;;;;1999.90;999.90;;;18.40;99.90;;;;;;5111390;27;20504;-65
2022/10/03 12:30:47;;;;;;;1999.90;999.90;;;18.40;99.90;;;;;;5110042;27;20046;-65
2022/10/03 12:33:39;;;;;;;1999.90;999.90;;;18.50;99.90;;;;;;5089026;28;20108;-65
2022/10/03 12:36:14;;;;;;;1999.90;999.90;;;18.50;99.90;;;;;;5077442;27;20493;-64
2022/10/03 12:38:40;;;;;;;1999.90;999.90;;;18.50;99.90;;;;;;5118553;27;20054;-65
2022/10/03 12:41:23;;;;;;;1999.90;999.90;;;18.30;99.90;;;;;;5087107;28;20859;-65
2022/10/03 12:43:48;;;;;;;1999.90;999.90;;;18.30;99.90;;;;;;5104606;27;20051;-65
2022/10/03 12:46:38;;;;;;;1999.90;999.90;;;18.20;99.90;;;;;;5101320;28;20059;-65
2022/10/03 12:49:15;;;;;;;1999.90;999.90;;;18.20;99.90;;;;;;5105362;28;20040;-65
2022/10/03 12:51:53;;;;;;;1999.90;999.90;;;18.10;99.90;;;;;;5102735;27;20043;-64
2022/10/03 12:54:44;;;;;;;1999.90;999.90;;;18.00;99.90;;;;;;5114182;27;20122;-64
2022/10/03 12:57:30;;;;;;;1999.90;999.90;;;18.00;99.90;;;;;;5091541;27;20472;-65
2022/10/03 13:00:19;;;;;;;1999.90;999.90;;;18.00;99.90;;;;;;5104571;27;20370;-64
2022/10/03 13:03:07;;;;;;;1999.90;999.90;;;18.10;99.90;;;;;;5093135;27;20488;-65
2022/10/03 13:05:55;;;;;;;1999.90;999.90;;;18.10;99.90;;;;;;5092026;27;20123;-65
2022/10/03 13:08:39;;;;;;;1999.90;999.90;;;18.10;99.90;;;;;;5108086;27;20519;-65
2022/10/03 13:11:11;;;;;;;1999.90;999.90;;;18.20;99.90;;;;;;5091012;28;20051;-65
2022/10/03 13:14:02;;;;;;;1999.90;999.90;;;18.10;99.90;;;;;;5095579;28;20051;-64
2022/10/03 13:16:32;;;;;;;1999.90;999.90;;;18.10;99.90;;;;;;5110043;27;20046;-65
2022/10/03 13:19:19;;;;;;;1999.90;999.90;;;18.00;99.90;;;;;;5088501;28;20361;-65
2022/10/03 13:22:12;;;;;;;1999.90;999.90;;;18.00;99.90;;;;;;5091753;28;20088;-65
2022/10/03 13:24:41;;;;;;;;;;;17.90;99.90;;;;;;5077277;28;20058;-65
2022/10/03 13:27:15;;;;;;;1999.90;999.90;;;17.90;99.90;;;;;;5099390;27;20424;-65
2022/10/03 13:30:12;;;;;;;1999.90;999.90;;;17.80;99.90;;;;;;5079755;28;20369;-65
2022/10/03 13:32:43;;;;;;;1999.90;999.90;;;17.80;99.90;;;;;;5091229;28;20051;-65
2022/10/03 13:38:41;;;;;;;1999.90;999.90;;;17.80;99.90;;;;;;5105440;27;20051;-64
2022/10/03 13:41:27;;;;;;;1999.90;999.90;;;17.80;99.90;;;;;;5098149;27;20092;-65
2022/10/03 13:43:58;;;;;;;1999.90;999.90;;;17.80;99.90;;;;;;5107858;27;20056;-65
2022/10/03 13:46:32;;;;;;;1999.90;999.90;;;17.90;99.90;;;;;;5103417;27;20040;-64
2022/10/03 13:49:10;;;;;;;1999.90;999.90;;;18.00;99.90;;;;;;5110231;27;20036;-64
2022/10/03 13:51:55;;;;;;;1999.90;999.90;;;18.00;99.90;;;;;;5088432;27;20493;-64
2022/10/03 13:54:40;;;;;;;1999.90;999.90;;;18.00;99.90;;;;;;5100489;28;20101;-65